Time;durP1;ratioP1;P1;durP2;ratioP2;P2;SDS_P1;SDS_P2;PMS_P1;PMS_P2;Temp;Humidity;BMP_temperature;BMP_pressure;BME280_temperature;BME280_humidity;BME280_pressure;Samples;Min_cycle;Max_cycle;Signal;HPM_P1;HPM_P2
2023/07/20 00:02:02;;;;;;;7.90;6.10;;;;;;;17.03;65.45;99632.02;105756;1250;61333;-73
2023/07/20 00:04:29;;;;;;;9.30;5.50;;;;;;;17.05;65.66;99631.52;105715;1252;63294;-73
2023/07/20 00:06:57;;;;;;;9.90;5.70;;;;;;;17.06;65.62;99627.80;105652;1251;61331;-72
2023/07/20 00:09:24;;;;;;;8.90;5.70;;;;;;;17.07;65.49;99628.67;105774;1250;60400;-71
2023/07/20 00:11:52;;;;;;;9.20;5.50;;;;;;;17.07;65.53;99634.54;106195;1251;65813;-70
2023/07/20 00:14:20;;;;;;;8.40;5.70;;;;;;;17.09;65.68;99632.16;105510;1253;61341;-71
2023/07/20 00:16:55;;;;;;;9.20;5.60;;;;;;;17.12;65.82;99628.23;105751;1251;63703;-70
2023/07/20 00:19:26;;;;;;;9.20;5.20;;;;;;;17.14;66.01;99627.07;105575;1251;61265;-71
2023/07/20 00:21:55;;;;;;;9.10;5.10;;;;;;;17.14;66.19;99626.86;105762;1251;61257;-72
2023/07/20 00:24:22;;;;;;;8.70;5.60;;;;;;;17.14;66.15;99624.60;105908;1251;67538;-71
2023/07/20 00:26:49;;;;;;;9.40;5.80;;;;;;;17.12;66.00;99626.76;105556;1251;61311;-72
2023/07/20 00:29:17;;;;;;;7.70;5.60;;;;;;;17.08;66.10;99636.84;105894;1251;64007;-74
2023/07/20 00:31:46;;;;;;;9.40;5.60;;;;;;;17.06;66.21;99642.41;105808;1251;61314;-72
2023/07/20 00:34:15;;;;;;;10.50;5.60;;;;;;;17.04;66.32;99640.58;105691;1254;61196;-70
2023/07/20 00:36:43;;;;;;;9.50;5.80;;;;;;;17.02;66.33;99634.10;105882;1253;65802;-70
2023/07/20 00:39:09;;;;;;;10.50;5.70;;;;;;;16.99;66.13;99630.98;105519;1251;61307;-70
2023/07/20 00:41:37;;;;;;;8.40;5.40;;;;;;;16.96;66.24;99631.50;105821;1254;64007;-72
2023/07/20 00:44:06;;;;;;;10.40;5.50;;;;;;;16.95;66.21;99637.55;106009;1252;61332;-70
2023/07/20 00:46:34;;;;;;;8.90;5.80;;;;;;;16.92;66.21;99638.30;105752;1251;60801;-70
2023/07/20 00:49:02;;;;;;;9.60;5.60;;;;;;;16.86;66.26;99643.45;105657;1260;66041;-72
2023/07/20 00:51:29;;;;;;;7.80;5.30;;;;;;;16.79;66.35;99643.10;105439;1260;61320;-72
2023/07/20 00:53:56;;;;;;;8.30;5.20;;;;;;;16.74;66.32;99644.23;105665;1251;63918;-71
2023/07/20 00:56:24;;;;;;;9.90;5.30;;;;;;;16.71;66.33;99642.67;105677;1250;61241;-72
2023/07/20 00:58:52;;;;;;;10.10;5.80;;;;;;;16.70;66.31;99638.19;105889;1250;61210;-72
2023/07/20 01:01:22;;;;;;;7.00;5.30;;;;;;;16.69;66.38;99632.84;105587;1251;65999;-72
2023/07/20 01:03:49;;;;;;;9.60;5.00;;;;;;;16.68;66.46;99635.63;105820;1251;61394;-71
2023/07/20 01:06:32;;;;;;;8.00;4.90;;;;;;;16.66;66.49;99636.88;105994;1254;64043;-71
2023/07/20 01:09:18;;;;;;;6.40;4.70;;;;;;;16.63;66.51;99638.11;105751;1258;61272;-70
2023/07/20 01:12:08;;;;;;;7.10;4.70;;;;;;;16.60;66.60;99639.30;105548;1250;61260;-70
2023/07/20 01:14:37;;;;;;;10.30;4.40;;;;;;;16.55;66.79;99639.56;105626;1253;65974;-70
2023/07/20 01:17:04;;;;;;;8.30;4.70;;;;;;;16.51;66.94;99638.43;105628;1257;61379;-70
2023/07/20 01:19:31;;;;;;;6.00;4.50;;;;;;;16.49;66.82;99626.77;105769;1254;63901;-69
2023/07/20 01:22:07;;;;;;;6.00;4.20;;;;;;;16.48;66.74;99628.14;105909;1251;61282;-70
2023/07/20 01:25:28;;;;;;;6.70;4.30;;;;;;;16.46;66.51;99637.19;105785;1256;61381;-72
2023/07/20 01:28:17;;;;;;;7.10;4.50;;;;;;;16.43;66.41;99645.72;105265;1263;65934;-69
2023/07/20 01:30:54;;;;;;;6.20;4.20;;;;;;;16.41;66.74;99644.93;105733;1256;61324;-69
2023/07/20 01:33:21;;;;;;;8.00;4.10;;;;;;;16.38;66.67;99637.08;105534;1257;64025;-70
2023/07/20 01:35:56;;;;;;;7.10;4.00;;;;;;;16.36;66.78;99633.97;105673;1257;61815;-70
2023/07/20 01:38:23;;;;;;;5.00;3.80;;;;;;;16.35;66.69;99630.71;105735;1251;61203;-71
2023/07/20 01:40:50;;;;;;;6.10;4.10;;;;;;;16.32;66.52;99629.94;105608;1259;66081;-70
2023/07/20 01:43:17;;;;;;;6.00;4.10;;;;;;;16.30;66.62;99628.73;105621;1251;61343;-71
2023/07/20 01:45:44;;;;;;;6.90;3.70;;;;;;;16.29;66.60;99624.81;105799;1256;64879;-70
2023/07/20 01:48:13;;;;;;;5.00;3.20;;;;;;;16.26;66.37;99625.10;105962;1251;61346;-70
2023/07/20 01:50:41;;;;;;;4.80;3.30;;;;;;;16.24;66.29;99626.45;105674;1253;61333;-70
2023/07/20 01:53:09;;;;;;;5.80;3.60;;;;;;;16.21;66.34;99622.47;105722;1251;65798;-71
2023/07/20 01:55:38;;;;;;;6.30;3.30;;;;;;;16.20;66.43;99623.53;105905;1256;61381;-70
2023/07/20 01:58:06;;;;;;;6.00;3.40;;;;;;;16.18;66.28;99626.58;105878;1251;63981;-71
2023/07/20 02:00:33;;;;;;;5.70;3.70;;;;;;;16.17;66.09;99625.70;105605;1254;61386;-70
2023/07/20 02:03:00;;;;;;;6.90;3.50;;;;;;;16.15;66.06;99625.17;105889;1250;61247;-71
2023/07/20 02:05:28;;;;;;;6.90;3.50;;;;;;;16.13;65.95;99624.36;105797;1254;66059;-70
2023/07/20 02:07:57;;;;;;;6.70;3.40;;;;;;;16.12;65.89;99620.07;105906;1251;61326;-71
2023/07/20 02:10:26;;;;;;;6.60;3.10;;;;;;;16.10;65.84;99611.61;105935;1250;64018;-75
2023/07/20 02:12:54;;;;;;;4.20;2.80;;;;;;;16.07;65.64;99611.57;105982;1251;61327;-70
2023/07/20 02:15:24;;;;;;;5.10;3.00;;;;;;;16.06;65.52;99612.17;105701;1250;61254;-71
2023/07/20 02:17:51;;;;;;;5.20;2.70;;;;;;;16.06;65.43;99613.23;105813;1251;66098;-70
2023/07/20 02:20:19;;;;;;;5.40;2.90;;;;;;;16.08;65.21;99610.43;105786;1250;61317;-70
2023/07/20 02:22:47;;;;;;;4.20;3.00;;;;;;;16.08;65.17;99610.02;105727;1251;62607;-70
2023/07/20 02:25:17;;;;;;;5.60;2.70;;;;;;;16.08;65.07;99615.35;105741;1253;61214;-72
2023/07/20 02:27:44;;;;;;;4.00;2.70;;;;;;;16.08;65.09;99617.45;105808;1251;61321;-71
2023/07/20 02:30:11;;;;;;;4.90;2.80;;;;;;;16.09;65.13;99622.01;105953;1254;65734;-70
2023/07/20 02:32:39;;;;;;;4.00;2.70;;;;;;;16.09;65.16;99621.80;105887;1250;61241;-70
2023/07/20 02:35:07;;;;;;;5.10;2.60;;;;;;;16.09;65.10;99622.84;105713;1250;63948;-70
2023/07/20 02:37:34;;;;;;;4.30;2.80;;;;;;;16.10;64.98;99622.63;105715;1250;61372;-73
2023/07/20 02:40:04;;;;;;;3.90;2.40;;;;;;;16.10;65.04;99624.16;105787;1253;61421;-71
2023/07/20 02:42:31;;;;;;;3.30;2.20;;;;;;;16.09;64.79;99627.46;105916;1254;66014;-70
2023/07/20 02:44:59;;;;;;;3.60;2.50;;;;;;;16.08;64.76;99625.28;105959;1250;61404;-70
2023/07/20 02:47:26;;;;;;;4.40;2.70;;;;;;;16.08;64.82;99628.88;105704;1251;63830;-70
2023/07/20 02:49:56;;;;;;;5.40;2.70;;;;;;;16.07;64.77;99636.24;105745;1250;62235;-72
2023/07/20 02:52:24;;;;;;;4.80;2.50;;;;;;;16.06;64.87;99639.02;105705;1251;61304;-69
2023/07/20 02:54:51;;;;;;;5.30;2.50;;;;;;;16.07;64.98;99637.71;105740;1252;65947;-70
2023/07/20 02:57:18;;;;;;;3.60;2.50;;;;;;;16.08;65.19;99640.73;105677;1251;61282;-70
2023/07/20 02:59:46;;;;;;;5.10;2.70;;;;;;;16.10;65.36;99640.12;105616;1251;64098;-70
2023/07/20 03:02:13;;;;;;;6.60;2.20;;;;;;;16.13;65.42;99639.48;105783;1253;61357;-70
2023/07/20 03:04:41;;;;;;;3.40;2.50;;;;;;;16.16;65.38;99638.27;105578;1251;61213;-69
2023/07/20 03:07:09;;;;;;;4.60;2.10;;;;;;;16.20;65.51;99639.02;105900;1250;64872;-75
2023/07/20 03:09:37;;;;;;;4.30;2.40;;;;;;;16.22;65.45;99639.09;105720;1252;61296;-70
2023/07/20 03:12:05;;;;;;;5.20;2.70;;;;;;;16.24;65.71;99639.91;105714;1257;63724;-70
2023/07/20 03:14:34;;;;;;;3.60;2.40;;;;;;;16.25;65.68;99642.54;105600;1258;61203;-70
2023/07/20 03:17:02;;;;;;;4.90;2.80;;;;;;;16.25;65.94;99640.20;105584;1250;61384;-70
2023/07/20 03:19:30;;;;;;;2.90;2.50;;;;;;;16.26;66.01;99640.55;105879;1257;64780;-70
2023/07/20 03:21:58;;;;;;;4.00;2.40;;;;;;;16.28;66.03;99638.41;105702;1250;61403;-70
2023/07/20 03:24:25;;;;;;;3.40;2.30;;;;;;;16.31;66.17;99638.96;105855;1251;63851;-70
2023/07/20 03:26:53;;;;;;;4.30;2.50;;;;;;;16.35;66.35;99640.84;105871;1252;61308;-70
2023/07/20 03:29:20;;;;;;;4.30;2.40;;;;;;;16.40;66.65;99639.04;105625;1250;61318;-71
2023/07/20 03:31:48;;;;;;;6.80;2.50;;;;;;;16.45;66.72;99634.83;105915;1251;65723;-70
2023/07/20 03:34:15;;;;;;;4.50;2.50;;;;;;;16.51;66.92;99636.16;105736;1250;61286;-71
2023/07/20 03:36:42;;;;;;;6.40;2.50;;;;;;;16.57;67.09;99633.98;105667;1254;64011;-71
2023/07/20 03:39:11;;;;;;;3.80;2.50;;;;;;;16.65;67.32;99634.12;105818;1254;61292;-72
2023/07/20 03:41:39;;;;;;;4.40;2.60;;;;;;;16.74;67.41;99637.17;105741;1251;61342;-70
2023/07/20 03:44:06;;;;;;;4.00;2.40;;;;;;;16.84;67.72;99637.79;105990;1254;66125;-71
2023/07/20 03:46:33;;;;;;;4.30;2.50;;;;;;;16.95;67.67;99638.92;105936;1250;61363;-71
2023/07/20 03:49:01;;;;;;;3.70;2.60;;;;;;;17.07;67.87;99643.62;105944;1253;64023;-72
2023/07/20 03:51:29;;;;;;;5.90;3.00;;;;;;;17.18;68.24;99646.17;105711;1251;61323;-71
2023/07/20 03:53:59;;;;;;;4.50;2.60;;;;;;;17.31;68.47;99643.61;105931;1251;61352;-70
2023/07/20 03:56:26;;;;;;;4.60;2.70;;;;;;;17.41;68.73;99646.47;105923;1254;65974;-71
2023/07/20 03:58:53;;;;;;;6.80;3.00;;;;;;;17.52;68.69;99650.36;105924;1250;61434;-72
2023/07/20 04:01:21;;;;;;;4.90;2.90;;;;;;;17.63;68.80;99648.33;105891;1251;63954;-73
2023/07/20 04:03:48;;;;;;;7.20;2.90;;;;;;;17.73;68.87;99644.63;106005;1250;61322;-71
2023/07/20 04:06:17;;;;;;;5.60;3.00;;;;;;;17.82;68.94;99645.33;105822;1250;61333;-73
2023/07/20 04:08:47;;;;;;;8.60;4.00;;;;;;;17.90;68.97;99640.61;105698;1252;312768;-70
2023/07/20 04:11:14;;;;;;;7.00;4.20;;;;;;;17.98;69.14;99639.33;105805;1250;61272;-69
2023/07/20 04:13:41;;;;;;;9.80;5.40;;;;;;;18.08;69.37;99641.34;105808;1250;63866;-69
2023/07/20 04:16:22;;;;;;;10.30;5.60;;;;;;;18.22;69.56;99642.55;106055;1250;61698;-71
2023/07/20 04:18:50;;;;;;;7.70;5.70;;;;;;;18.35;69.48;99638.09;105990;1250;61235;-71
2023/07/20 04:21:17;;;;;;;8.30;4.80;;;;;;;18.49;69.22;99632.73;105745;1259;65732;-69
2023/07/20 04:23:44;;;;;;;8.10;4.60;;;;;;;18.64;68.92;99631.11;105613;1251;61300;-71
2023/07/20 04:26:12;;;;;;;6.10;3.80;;;;;;;18.79;68.67;99629.20;105834;1251;63712;-69
2023/07/20 04:28:42;;;;;;;6.90;3.50;;;;;;;18.96;68.15;99628.35;105937;1251;61246;-70
2023/07/20 04:31:15;;;;;;;5.90;3.30;;;;;;;19.09;67.56;99630.02;105614;1251;61238;-71
2023/07/20 04:33:43;;;;;;;4.50;2.70;;;;;;;19.23;67.11;99628.02;105566;1251;64805;-70
2023/07/20 04:36:10;;;;;;;4.90;2.90;;;;;;;19.36;66.69;99626.65;105763;1251;61334;-72
2023/07/20 04:38:39;;;;;;;3.50;2.30;;;;;;;19.51;66.11;99630.66;106028;1252;62906;-69
2023/07/20 04:41:17;;;;;;;4.90;2.30;;;;;;;19.67;65.41;99628.79;105824;1251;61221;-70
2023/07/20 04:43:46;;;;;;;7.70;2.20;;;;;;;19.81;64.75;99628.56;105854;1253;61273;-70
2023/07/20 04:46:18;;;;;;;6.60;2.00;;;;;;;19.94;64.29;99627.17;105702;1256;66046;-71
2023/07/20 04:48:47;;;;;;;4.00;2.20;;;;;;;20.07;63.77;99629.54;105797;1251;61241;-71
2023/07/20 04:51:17;;;;;;;5.80;2.00;;;;;;;20.16;63.47;99628.82;105733;1257;63963;-71
2023/07/20 04:53:44;;;;;;;3.20;1.70;;;;;;;20.28;63.29;99629.39;105901;1250;61316;-69
2023/07/20 04:56:11;;;;;;;5.40;2.10;;;;;;;20.40;63.25;99630.13;105954;1250;61285;-70
2023/07/20 04:58:38;;;;;;;4.00;2.00;;;;;;;20.53;63.05;99630.29;105940;1256;65873;-71
2023/07/20 05:01:05;;;;;;;4.70;1.80;;;;;;;20.65;62.43;99629.81;105802;1251;61359;-70
2023/07/20 05:03:35;;;;;;;8.20;2.00;;;;;;;20.77;61.66;99631.27;105858;1251;64177;-70
2023/07/20 05:06:02;;;;;;;4.20;1.80;;;;;;;20.89;61.02;99633.20;105954;1250;61410;-70
2023/07/20 05:08:31;;;;;;;2.90;1.80;;;;;;;21.00;60.70;99631.02;105846;1256;61296;-70
2023/07/20 05:11:02;;;;;;;3.80;1.60;;;;;;;21.10;60.28;99630.02;105664;1257;65740;-70
2023/07/20 05:13:30;;;;;;;5.20;1.60;;;;;;;21.20;60.04;99629.92;105699;1251;61256;-70
2023/07/20 05:15:57;;;;;;;8.40;2.00;;;;;;;21.30;59.47;99626.63;105763;1256;64419;-71
2023/07/20 05:18:25;;;;;;;6.80;2.00;;;;;;;21.42;58.95;99622.05;105663;1250;61283;-71
2023/07/20 05:20:52;;;;;;;5.20;1.70;;;;;;;21.54;58.55;99620.25;105985;1250;61318;-71
2023/07/20 05:23:20;;;;;;;2.90;1.60;;;;;;;21.62;58.10;99616.58;105925;1257;66042;-70
2023/07/20 05:25:58;;;;;;;8.20;1.60;;;;;;;21.71;58.35;99615.85;105567;1253;61330;-72
2023/07/20 05:28:26;;;;;;;4.20;1.60;;;;;;;21.82;58.27;99616.39;105844;1250;63814;-71
2023/07/20 05:30:53;;;;;;;3.40;1.80;;;;;;;21.91;58.17;99611.89;105816;1251;61320;-72
2023/07/20 05:33:21;;;;;;;4.30;1.70;;;;;;;22.00;57.71;99613.54;105643;1257;61225;-72
2023/07/20 05:35:47;;;;;;;4.30;1.70;;;;;;;22.09;57.43;99615.27;105778;1254;66038;-71
2023/07/20 05:38:14;;;;;;;3.10;1.70;;;;;;;22.19;57.09;99616.24;105741;1251;61312;-72
2023/07/20 05:40:42;;;;;;;5.80;1.70;;;;;;;22.26;56.63;99608.86;105797;1250;63787;-71
2023/07/20 05:43:10;;;;;;;5.00;1.70;;;;;;;22.35;56.38;99611.63;105714;1257;61333;-70
2023/07/20 05:45:37;;;;;;;6.00;1.80;;;;;;;22.44;55.66;99606.93;105517;1251;61369;-71
2023/07/20 05:48:05;;;;;;;3.20;1.70;;;;;;;22.53;55.26;99599.38;105977;1254;65885;-68
2023/07/20 05:50:32;;;;;;;2.50;1.50;;;;;;;22.61;54.55;99598.25;105968;1251;61250;-69
2023/07/20 05:52:59;;;;;;;4.50;1.50;;;;;;;22.67;53.88;99596.63;105897;1251;63861;-69
2023/07/20 05:55:26;;;;;;;3.90;1.40;;;;;;;22.74;53.07;99594.29;105829;1251;61243;-69
2023/07/20 05:57:54;;;;;;;3.30;1.40;;;;;;;22.81;52.48;99598.46;105716;1256;61433;-68
2023/07/20 06:00:26;;;;;;;3.50;1.50;;;;;;;22.87;52.06;99597.64;105759;1254;65848;-68
2023/07/20 06:02:54;;;;;;;3.80;1.60;;;;;;;22.92;51.80;99598.10;105603;1251;61352;-70
2023/07/20 06:05:23;;;;;;;6.50;1.40;;;;;;;22.98;51.65;99596.73;105993;1250;63754;-69
2023/07/20 06:07:54;;;;;;;2.80;1.20;;;;;;;23.06;51.63;99599.84;105861;1250;61249;-69
2023/07/20 06:10:21;;;;;;;3.30;1.50;;;;;;;23.15;51.30;99601.45;106022;1250;61243;-71
2023/07/20 06:12:48;;;;;;;2.60;1.50;;;;;;;23.22;51.30;99591.34;106074;1250;65593;-69
2023/07/20 06:15:26;;;;;;;3.70;1.50;;;;;;;23.29;51.15;99587.79;105984;1254;61240;-71
2023/07/20 06:17:55;;;;;;;4.00;1.70;;;;;;;23.34;50.83;99582.92;105691;1251;64128;-68
2023/07/20 06:20:22;;;;;;;3.80;1.50;;;;;;;23.41;50.29;99586.04;105919;1253;61688;-68
2023/07/20 06:22:49;;;;;;;4.10;1.80;;;;;;;23.48;49.89;99584.02;105664;1250;61260;-72
2023/07/20 06:25:17;;;;;;;5.30;1.70;;;;;;;23.55;49.53;99583.37;105716;1250;66021;-70
2023/07/20 06:27:44;;;;;;;6.90;1.50;;;;;;;23.60;49.41;99588.92;105959;1250;61205;-72
2023/07/20 06:30:11;;;;;;;4.40;1.50;;;;;;;23.66;49.24;99590.84;105994;1250;64055;-71
2023/07/20 06:32:40;;;;;;;7.30;1.80;;;;;;;23.75;49.67;99589.63;106253;1251;61325;-69
2023/07/20 06:35:08;;;;;;;4.90;1.70;;;;;;;23.83;49.81;99593.13;105828;1250;61232;-72
2023/07/20 06:37:35;;;;;;;5.70;1.90;;;;;;;23.89;49.55;99592.98;105932;1254;66045;-72
2023/07/20 06:40:03;;;;;;;4.10;2.20;;;;;;;23.95;49.42;99592.18;105801;1253;61332;-72
2023/07/20 06:42:34;;;;;;;2.90;1.50;;;;;;;24.03;49.41;99591.91;105826;1256;63015;-71
2023/07/20 06:45:04;;;;;;;3.80;2.00;;;;;;;24.13;49.66;99595.80;105768;1250;61284;-72
2023/07/20 06:47:33;;;;;;;3.80;1.60;;;;;;;24.22;49.79;99592.39;105634;1254;61169;-71
2023/07/20 06:50:00;;;;;;;4.10;1.70;;;;;;;24.30;49.67;99591.46;105836;1251;64814;-68
2023/07/20 06:52:27;;;;;;;6.30;1.70;;;;;;;24.37;49.28;99592.03;106005;1251;61214;-69
2023/07/20 06:54:54;;;;;;;5.80;1.70;;;;;;;24.44;48.86;99584.87;105979;1251;63859;-68
2023/07/20 06:57:22;;;;;;;6.20;1.70;;;;;;;24.50;48.07;99579.70;105757;1250;61144;-71
2023/07/20 06:59:54;;;;;;;5.90;1.90;;;;;;;24.57;47.71;99582.09;108384;1250;61379;-67
2023/07/20 07:02:20;;;;;;;3.80;1.60;;;;;;;24.65;47.32;99584.27;109373;1250;66068;-68
2023/07/20 07:04:47;;;;;;;3.70;1.80;;;;;;;24.71;47.31;99577.83;109394;1251;59008;-71
2023/07/20 07:07:14;;;;;;;3.10;1.50;;;;;;;24.78;46.83;99582.73;109446;1250;63875;-70
2023/07/20 07:09:53;;;;;;;3.70;1.50;;;;;;;24.83;45.96;99588.59;109323;1250;59279;-69
2023/07/20 07:12:20;;;;;;;4.00;1.70;;;;;;;24.88;45.60;99592.91;109337;1250;58983;-70
2023/07/20 07:14:47;;;;;;;3.50;1.60;;;;;;;24.93;45.61;99590.50;109223;1251;66286;-69
2023/07/20 07:17:14;;;;;;;2.90;1.50;;;;;;;25.00;45.87;99593.21;109361;1250;59046;-70
2023/07/20 07:19:46;;;;;;;4.10;1.70;;;;;;;25.07;45.66;99596.06;109312;1250;64064;-71
2023/07/20 07:22:16;;;;;;;8.80;1.30;;;;;;;25.15;44.31;99595.52;109274;1250;59787;-75
2023/07/20 07:24:43;;;;;;;5.00;1.60;;;;;;;25.20;43.53;99596.88;109387;1251;58969;-72
2023/07/20 07:27:10;;;;;;;7.40;1.90;;;;;;;25.25;43.86;99601.06;109228;1251;66557;-69
2023/07/20 07:29:37;;;;;;;7.70;2.00;;;;;;;25.33;44.39;99600.52;109116;1257;59226;-71
2023/07/20 07:32:04;;;;;;;5.80;1.60;;;;;;;25.43;44.98;99598.80;109416;1250;63821;-71
2023/07/20 07:34:34;;;;;;;5.70;1.70;;;;;;;25.53;44.03;99596.63;109360;1250;59438;-70
2023/07/20 07:37:01;;;;;;;4.70;1.60;;;;;;;25.59;43.67;99597.96;107739;1256;62535;-71
2023/07/20 07:39:30;;;;;;;3.10;1.50;;;;;;;25.63;43.58;99597.82;105800;1251;64915;-71
2023/07/20 07:42:01;;;;;;;4.90;2.00;;;;;;;25.71;43.20;99597.14;106207;1254;61468;-70
2023/07/20 07:44:29;;;;;;;2.40;1.70;;;;;;;25.80;42.39;99598.19;105887;1251;62593;-71
2023/07/20 07:46:56;;;;;;;4.10;1.40;;;;;;;25.88;42.29;99601.26;106539;1256;61289;-72
2023/07/20 07:49:24;;;;;;;4.20;1.60;;;;;;;25.97;42.15;99599.45;106306;1250;61224;-70
2023/07/20 07:51:50;;;;;;;4.10;1.40;;;;;;;26.05;41.84;99603.60;106752;1256;66015;-72
2023/07/20 07:54:17;;;;;;;5.00;1.60;;;;;;;26.14;42.33;99598.79;106619;1254;61226;-70
2023/07/20 07:56:44;;;;;;;4.60;1.60;;;;;;;26.22;41.51;99603.27;106943;1251;62619;-70
2023/07/20 07:59:11;;;;;;;4.40;1.60;;;;;;;26.29;41.00;99604.97;106568;1250;61216;-70
2023/07/20 08:01:38;;;;;;;6.50;1.60;;;;;;;26.35;40.53;99604.06;106949;1250;61219;-70
2023/07/20 08:04:05;;;;;;;5.30;1.50;;;;;;;26.38;39.77;99606.63;107035;1250;66115;-70
2023/07/20 08:06:33;;;;;;;5.50;2.40;;;;;;;26.39;38.91;99604.81;106811;1250;61299;-69
2023/07/20 08:09:00;;;;;;;3.20;1.60;;;;;;;26.40;38.30;99600.42;106745;1252;63927;-71
2023/07/20 08:11:27;;;;;;;7.10;1.70;;;;;;;26.43;39.30;99598.65;106532;1251;61324;-67
2023/07/20 08:13:54;;;;;;;5.30;1.80;;;;;;;26.51;40.31;99600.52;106290;1252;61346;-68
2023/07/20 08:16:21;;;;;;;13.20;2.10;;;;;;;26.61;40.98;99598.84;106726;1254;65767;-70
2023/07/20 08:18:49;;;;;;;5.10;1.70;;;;;;;26.68;40.28;99599.50;105621;1253;61349;-69
2023/07/20 08:21:17;;;;;;;5.30;1.60;;;;;;;26.74;39.69;99596.63;105862;1256;63917;-69
2023/07/20 08:23:44;;;;;;;7.10;1.80;;;;;;;26.82;39.86;99596.91;105891;1254;61264;-69
2023/07/20 08:26:10;;;;;;;5.50;1.50;;;;;;;26.93;39.35;99596.54;105785;1250;61224;-69
2023/07/20 08:28:37;;;;;;;5.00;1.70;;;;;;;27.04;39.05;99597.76;105857;1250;65924;-69
2023/07/20 08:31:05;;;;;;;4.40;1.60;;;;;;;27.13;38.53;99600.02;105871;1251;61272;-68
2023/07/20 08:33:33;;;;;;;2.50;1.70;;;;;;;27.21;37.96;99598.84;105560;1251;64041;-67
2023/07/20 08:36:01;;;;;;;15.40;3.90;;;;;;;27.26;37.73;99599.12;105521;1250;61321;-69
2023/07/20 08:38:28;;;;;;;41.50;7.70;;;;;;;27.31;37.56;99599.84;105904;1250;61238;-67
2023/07/20 08:40:55;;;;;;;5.10;1.50;;;;;;;27.33;36.11;99598.58;105848;1251;65878;-68
2023/07/20 08:43:26;;;;;;;3.20;1.40;;;;;;;27.28;36.73;99594.42;105957;1251;61257;-70
2023/07/20 08:45:55;;;;;;;3.80;1.60;;;;;;;27.27;37.40;99587.79;105817;1250;63852;-72
2023/07/20 08:48:22;;;;;;;6.30;1.40;;;;;;;27.30;37.81;99589.47;105631;1250;61976;-72
2023/07/20 08:50:50;;;;;;;2.70;1.40;;;;;;;27.38;36.95;99592.45;105602;1253;61267;-72
2023/07/20 08:53:17;;;;;;;6.60;1.80;;;;;;;27.46;36.82;99586.04;105668;1256;66079;-72
2023/07/20 08:55:45;;;;;;;3.60;1.60;;;;;;;27.51;36.72;99582.76;106106;1250;61331;-70
2023/07/20 08:58:12;;;;;;;3.40;1.60;;;;;;;27.54;36.86;99583.38;106278;1250;64170;-70
2023/07/20 09:00:40;;;;;;;6.10;1.70;;;;;;;27.53;36.54;99581.09;105633;1251;61193;-69
2023/07/20 09:03:11;;;;;;;3.00;1.40;;;;;;;27.56;37.32;99582.98;105702;1253;61249;-71
2023/07/20 09:05:40;;;;;;;4.60;1.60;;;;;;;27.62;36.22;99586.04;105605;1251;64609;-70
2023/07/20 09:08:07;;;;;;;2.70;1.40;;;;;;;27.65;36.48;99583.21;105837;1256;61360;-69
2023/07/20 09:10:34;;;;;;;8.20;1.60;;;;;;;27.71;35.88;99582.64;105929;1251;64525;-69
2023/07/20 09:13:02;;;;;;;2.60;1.20;;;;;;;27.76;34.98;99581.18;105718;1250;61275;-69
2023/07/20 09:15:30;;;;;;;5.40;1.50;;;;;;;27.80;35.02;99580.86;105879;1250;61359;-69
2023/07/20 09:18:00;;;;;;;2.60;1.40;;;;;;;27.87;35.22;99582.51;105928;1256;66763;-68
2023/07/20 09:20:30;;;;;;;3.10;1.50;;;;;;;27.96;34.95;99580.43;105688;1251;61317;-70
2023/07/20 09:22:57;;;;;;;2.90;1.40;;;;;;;28.03;34.84;99579.80;105659;1253;63516;-68
2023/07/20 09:25:24;;;;;;;4.60;1.20;;;;;;;28.06;34.35;99574.28;105923;1250;61246;-69
2023/07/20 09:27:56;;;;;;;5.40;1.50;;;;;;;28.08;34.24;99568.13;105957;1253;61190;-68
2023/07/20 09:30:24;;;;;;;3.80;1.60;;;;;;;28.11;34.65;99562.36;105676;1254;66535;-70
2023/07/20 09:32:58;;;;;;;4.30;1.50;;;;;;;28.19;35.37;99563.46;105661;1250;62849;-70
2023/07/20 09:35:26;;;;;;;3.10;1.70;;;;;;;28.32;35.41;99570.35;105778;1253;64013;-68
2023/07/20 09:37:58;;;;;;;3.90;1.70;;;;;;;28.42;34.86;99570.55;105580;1253;61403;-69
2023/07/20 09:40:28;;;;;;;3.90;1.40;;;;;;;28.48;34.91;99571.90;105705;1257;61204;-70
2023/07/20 09:43:04;;;;;;;3.10;1.40;;;;;;;28.54;34.61;99578.36;105661;1252;66079;-69
2023/07/20 09:45:40;;;;;;;2.40;1.20;;;;;;;28.60;34.18;99574.06;106062;1251;61293;-71
2023/07/20 09:48:26;;;;;;;2.90;1.30;;;;;;;28.68;32.99;99572.78;105968;1257;64101;-69
2023/07/20 09:50:56;;;;;;;3.10;1.30;;;;;;;28.80;32.82;99575.31;105780;1251;61227;-69
2023/07/20 09:53:24;;;;;;;20.20;2.90;;;;;;;28.89;32.02;99571.06;105736;1250;61282;-66
2023/07/20 09:55:52;;;;;;;12.30;2.40;;;;;;;28.95;32.04;99570.07;105995;1257;65880;-67
2023/07/20 09:58:18;;;;;;;4.50;1.70;;;;;;;29.05;32.56;99566.16;105950;1256;61256;-68
2023/07/20 10:00:50;;;;;;;3.60;1.30;;;;;;;29.20;32.31;99569.34;105823;1256;63609;-67
2023/07/20 10:03:21;;;;;;;4.90;1.20;;;;;;;29.35;31.74;99570.13;105717;1260;61247;-68
2023/07/20 10:05:54;;;;;;;2.70;1.20;;;;;;;29.41;30.73;99568.96;105826;1250;61241;-68
2023/07/20 10:08:23;;;;;;;;;;;;;;;29.46;31.89;99571.13;105717;1251;66077;-67
2023/07/20 10:10:54;;;;;;;1.80;1.30;;;;;;;29.55;31.29;99574.77;106095;1256;61221;-68
2023/07/20 10:13:29;;;;;;;10.40;1.90;;;;;;;29.61;31.10;99570.49;105816;1251;64156;-66
2023/07/20 10:16:07;;;;;;;3.80;1.40;;;;;;;29.72;31.64;99573.21;105782;1250;61352;-66
2023/07/20 10:18:50;;;;;;;6.00;1.60;;;;;;;29.86;31.66;99565.68;105668;1250;61330;-67
2023/07/20 10:21:20;;;;;;;6.30;1.90;;;;;;;30.01;32.63;99562.52;105646;1257;66069;-69
2023/07/20 10:23:50;;;;;;;9.60;2.20;;;;;;;30.18;32.47;99556.90;105874;1256;61553;-66
2023/07/20 10:26:17;;;;;;;6.90;2.40;;;;;;;30.28;31.66;99554.02;105899;1250;63802;-67
2023/07/20 10:28:44;;;;;;;4.50;2.20;;;;;;;30.33;31.15;99554.85;105780;1257;61196;-69
2023/07/20 10:31:12;;;;;;;4.50;1.80;;;;;;;30.36;30.09;99554.30;105565;1253;61276;-69
2023/07/20 10:33:41;;;;;;;2.30;1.50;;;;;;;30.32;29.12;99552.17;105717;1250;65903;-69
2023/07/20 10:36:09;;;;;;;4.10;1.60;;;;;;;30.27;29.75;99549.02;105981;1256;61241;-71
2023/07/20 10:38:46;;;;;;;2.90;1.40;;;;;;;30.35;31.01;99547.22;105949;1254;64148;-69
2023/07/20 10:41:16;;;;;;;3.50;1.70;;;;;;;30.57;31.11;99544.29;105756;1250;61315;-71
2023/07/20 10:43:44;;;;;;;2.50;1.50;;;;;;;30.83;31.77;99540.41;105877;1250;61215;-69
2023/07/20 10:46:15;;;;;;;4.50;1.50;;;;;;;31.06;31.03;99537.42;106030;1256;66111;-68
2023/07/20 10:49:02;;;;;;;2.60;1.50;;;;;;;31.20;30.66;99539.67;105821;1250;61251;-69
2023/07/20 10:51:30;;;;;;;502.80;43.80;;;;;;;31.28;30.34;99538.97;105674;1253;64133;-69
2023/07/20 10:53:58;;;;;;;127.60;12.40;;;;;;;31.36;30.43;99538.12;105638;1251;61274;-68
2023/07/20 10:56:27;;;;;;;47.60;4.50;;;;;;;31.44;30.46;99537.20;105628;1250;61311;-69
2023/07/20 10:59:00;;;;;;;22.30;3.40;;;;;;;31.46;30.27;99538.89;105647;1258;65820;-69
2023/07/20 11:01:31;;;;;;;9.30;2.10;;;;;;;31.43;30.27;99538.63;105658;1258;61271;-68
2023/07/20 11:04:03;;;;;;;6.60;1.70;;;;;;;31.46;30.57;99532.18;105595;1250;63871;-69
2023/07/20 11:06:32;;;;;;;74.70;9.10;;;;;;;31.51;29.71;99529.10;105644;1251;61245;-70
2023/07/20 11:09:14;;;;;;;137.20;14.90;;;;;;;31.62;29.88;99532.65;105955;1250;61151;-68
2023/07/20 11:11:42;;;;;;;17.20;3.20;;;;;;;31.79;30.06;99533.90;105745;1257;66129;-69
2023/07/20 11:14:11;;;;;;;11.50;2.80;;;;;;;31.91;30.90;99531.81;105813;1252;61211;-68
2023/07/20 11:16:39;;;;;;;4.50;1.90;;;;;;;32.04;31.40;99522.71;105624;1257;63841;-69
2023/07/20 11:19:20;;;;;;;8.80;2.20;;;;;;;32.22;31.35;99520.45;105857;1251;61309;-69
2023/07/20 11:21:57;;;;;;;5.30;1.90;;;;;;;32.43;32.01;99521.07;105725;1250;61278;-70
2023/07/20 11:24:31;;;;;;;5.80;2.60;;;;;;;32.59;31.81;99517.48;105878;1259;67004;-68
2023/07/20 11:26:58;;;;;;;6.30;2.30;;;;;;;32.75;31.51;99514.16;105856;1250;61831;-68
2023/07/20 11:29:26;;;;;;;13.10;3.20;;;;;;;32.87;31.27;99513.56;105944;1250;63893;-69
2023/07/20 11:31:58;;;;;;;12.90;3.20;;;;;;;32.94;31.35;99508.58;105807;1250;61343;-68
2023/07/20 11:34:27;;;;;;;11.50;2.80;;;;;;;32.97;31.68;99500.60;105726;1250;61234;-68